sensor_id;sensor_type;location;lat;lon;timestamp;P1;durP1;ratioP1;P2;durP2;ratioP2
6019;SDS011;3038;51.122;6.840;2023-11-21T00:00:34;22.83;;;13.53;;
6019;SDS011;3038;51.122;6.840;2023-11-21T00:03:03;16.23;;;12.50;;
6019;SDS011;3038;51.122;6.840;2023-11-21T00:05:32;16.90;;;14.47;;
6019;SDS011;3038;51.122;6.840;2023-11-21T00:07:57;17.27;;;15.23;;
6019;SDS011;3038;51.122;6.840;2023-11-21T00:10:23;19.63;;;15.80;;
6019;SDS011;3038;51.122;6.840;2023-11-21T00:12:54;28.40;;;15.63;;
6019;SDS011;3038;51.122;6.840;2023-11-21T00:15:29;22.53;;;15.40;;
6019;SDS011;3038;51.122;6.840;2023-11-21T00:17:57;23.40;;;16.20;;
6019;SDS011;3038;51.122;6.840;2023-11-21T00:20:26;22.93;;;14.53;;
6019;SDS011;3038;51.122;6.840;2023-11-21T00:22:54;14.67;;;12.87;;
6019;SDS011;3038;51.122;6.840;2023-11-21T00:25:22;21.63;;;15.10;;
6019;SDS011;3038;51.122;6.840;2023-11-21T00:27:50;19.27;;;14.97;;
6019;SDS011;3038;51.122;6.840;2023-11-21T00:30:15;24.33;;;16.80;;
6019;SDS011;3038;51.122;6.840;2023-11-21T00:32:52;17.17;;;15.20;;
6019;SDS011;3038;51.122;6.840;2023-11-21T00:35:23;31.60;;;16.80;;
6019;SDS011;3038;51.122;6.840;2023-11-21T00:37:49;21.43;;;17.43;;
6019;SDS011;3038;51.122;6.840;2023-11-21T00:40:15;27.50;;;15.17;;
6019;SDS011;3038;51.122;6.840;2023-11-21T00:42:40;23.83;;;15.47;;
6019;SDS011;3038;51.122;6.840;2023-11-21T00:45:07;20.60;;;14.77;;
6019;SDS011;3038;51.122;6.840;2023-11-21T00:47:32;18.83;;;14.97;;
6019;SDS011;3038;51.122;6.840;2023-11-21T00:50:02;19.57;;;15.00;;
6019;SDS011;3038;51.122;6.840;2023-11-21T00:53:04;20.37;;;15.90;;
6019;SDS011;3038;51.122;6.840;2023-11-21T00:55:30;16.60;;;14.77;;
6019;SDS011;3038;51.122;6.840;2023-11-21T00:58:01;24.07;;;14.70;;
6019;SDS011;3038;51.122;6.840;2023-11-21T01:00:31;19.37;;;13.90;;
6019;SDS011;3038;51.122;6.840;2023-11-21T01:03:00;15.17;;;13.57;;
6019;SDS011;3038;51.122;6.840;2023-11-21T01:05:25;18.30;;;13.80;;
6019;SDS011;3038;51.122;6.840;2023-11-21T01:07:52;19.70;;;14.87;;
6019;SDS011;3038;51.122;6.840;2023-11-21T01:10:17;18.00;;;14.10;;
6019;SDS011;3038;51.122;6.840;2023-11-21T01:12:46;20.93;;;15.10;;
6019;SDS011;3038;51.122;6.840;2023-11-21T01:15:11;15.03;;;13.00;;
6019;SDS011;3038;51.122;6.840;2023-11-21T01:17:40;18.60;;;14.00;;
6019;SDS011;3038;51.122;6.840;2023-11-21T01:20:14;18.30;;;14.20;;
6019;SDS011;3038;51.122;6.840;2023-11-21T01:22:51;18.33;;;13.40;;
6019;SDS011;3038;51.122;6.840;2023-11-21T01:25:23;21.70;;;14.00;;
6019;SDS011;3038;51.122;6.840;2023-11-21T01:27:51;14.03;;;11.80;;
6019;SDS011;3038;51.122;6.840;2023-11-21T01:30:23;15.10;;;11.33;;
6019;SDS011;3038;51.122;6.840;2023-11-21T01:33:14;16.33;;;12.23;;
6019;SDS011;3038;51.122;6.840;2023-11-21T01:35:46;19.13;;;14.23;;
6019;SDS011;3038;51.122;6.840;2023-11-21T01:38:28;16.93;;;10.97;;
6019;SDS011;3038;51.122;6.840;2023-11-21T01:40:54;16.27;;;11.97;;
6019;SDS011;3038;51.122;6.840;2023-11-21T01:43:19;21.40;;;12.43;;
6019;SDS011;3038;51.122;6.840;2023-11-21T01:45:45;22.20;;;12.33;;
6019;SDS011;3038;51.122;6.840;2023-11-21T01:48:18;21.90;;;13.53;;
6019;SDS011;3038;51.122;6.840;2023-11-21T01:50:43;18.93;;;13.47;;
6019;SDS011;3038;51.122;6.840;2023-11-21T01:53:10;25.77;;;14.17;;
6019;SDS011;3038;51.122;6.840;2023-11-21T01:55:40;20.57;;;13.47;;
6019;SDS011;3038;51.122;6.840;2023-11-21T01:58:07;20.83;;;13.43;;
6019;SDS011;3038;51.122;6.840;2023-11-21T02:00:33;20.77;;;13.67;;
6019;SDS011;3038;51.122;6.840;2023-11-21T02:02:59;20.50;;;13.67;;
6019;SDS011;3038;51.122;6.840;2023-11-21T02:05:24;23.70;;;14.00;;
6019;SDS011;3038;51.122;6.840;2023-11-21T02:07:51;17.67;;;13.73;;
6019;SDS011;3038;51.122;6.840;2023-11-21T02:10:17;20.80;;;14.50;;
6019;SDS011;3038;51.122;6.840;2023-11-21T02:12:47;24.83;;;14.17;;
6019;SDS011;3038;51.122;6.840;2023-11-21T02:15:16;25.50;;;15.17;;
6019;SDS011;3038;51.122;6.840;2023-11-21T02:17:48;20.90;;;13.93;;
6019;SDS011;3038;51.122;6.840;2023-11-21T02:20:16;19.57;;;14.20;;
6019;SDS011;3038;51.122;6.840;2023-11-21T02:22:43;23.40;;;14.83;;
6019;SDS011;3038;51.122;6.840;2023-11-21T02:25:14;20.30;;;13.83;;
6019;SDS011;3038;51.122;6.840;2023-11-21T02:27:39;22.50;;;14.23;;
6019;SDS011;3038;51.122;6.840;2023-11-21T02:30:07;22.20;;;13.93;;
6019;SDS011;3038;51.122;6.840;2023-11-21T02:32:37;32.87;;;14.17;;
6019;SDS011;3038;51.122;6.840;2023-11-21T02:35:03;32.90;;;15.33;;
6019;SDS011;3038;51.122;6.840;2023-11-21T02:37:32;22.27;;;14.03;;
6019;SDS011;3038;51.122;6.840;2023-11-21T02:39:58;23.60;;;14.83;;
6019;SDS011;3038;51.122;6.840;2023-11-21T02:42:29;24.83;;;15.43;;
6019;SDS011;3038;51.122;6.840;2023-11-21T02:44:57;20.67;;;14.00;;
6019;SDS011;3038;51.122;6.840;2023-11-21T02:47:25;24.70;;;15.30;;
6019;SDS011;3038;51.122;6.840;2023-11-21T02:49:51;28.20;;;15.30;;
6019;SDS011;3038;51.122;6.840;2023-11-21T02:52:20;23.43;;;15.37;;
6019;SDS011;3038;51.122;6.840;2023-11-21T02:54:48;22.00;;;15.10;;
6019;SDS011;3038;51.122;6.840;2023-11-21T02:57:22;23.97;;;15.90;;
6019;SDS011;3038;51.122;6.840;2023-11-21T02:59:50;29.43;;;17.10;;
6019;SDS011;3038;51.122;6.840;2023-11-21T03:02:19;33.17;;;17.93;;
6019;SDS011;3038;51.122;6.840;2023-11-21T03:04:47;29.90;;;18.50;;
6019;SDS011;3038;51.122;6.840;2023-11-21T03:07:14;28.80;;;19.60;;
6019;SDS011;3038;51.122;6.840;2023-11-21T03:09:48;28.23;;;17.80;;
6019;SDS011;3038;51.122;6.840;2023-11-21T03:12:14;32.73;;;20.10;;
6019;SDS011;3038;51.122;6.840;2023-11-21T03:14:40;31.73;;;19.53;;
6019;SDS011;3038;51.122;6.840;2023-11-21T03:17:06;28.60;;;19.90;;
6019;SDS011;3038;51.122;6.840;2023-11-21T03:19:32;30.83;;;17.80;;
6019;SDS011;3038;51.122;6.840;2023-11-21T03:22:00;31.77;;;18.40;;
6019;SDS011;3038;51.122;6.840;2023-11-21T03:24:26;26.50;;;19.10;;
6019;SDS011;3038;51.122;6.840;2023-11-21T03:26:57;31.20;;;20.00;;
6019;SDS011;3038;51.122;6.840;2023-11-21T03:29:22;33.50;;;21.10;;
6019;SDS011;3038;51.122;6.840;2023-11-21T03:31:48;34.20;;;21.73;;
6019;SDS011;3038;51.122;6.840;2023-11-21T03:34:26;33.90;;;22.80;;
6019;SDS011;3038;51.122;6.840;2023-11-21T03:36:55;38.57;;;20.80;;
6019;SDS011;3038;51.122;6.840;2023-11-21T03:39:23;32.97;;;20.40;;
6019;SDS011;3038;51.122;6.840;2023-11-21T03:41:53;30.00;;;21.07;;
6019;SDS011;3038;51.122;6.840;2023-11-21T03:44:19;33.80;;;21.67;;
6019;SDS011;3038;51.122;6.840;2023-11-21T03:46:44;37.80;;;23.20;;
6019;SDS011;3038;51.122;6.840;2023-11-21T03:49:13;33.07;;;22.00;;
6019;SDS011;3038;51.122;6.840;2023-11-21T03:51:38;33.03;;;21.30;;
6019;SDS011;3038;51.122;6.840;2023-11-21T03:54:28;34.20;;;22.60;;
6019;SDS011;3038;51.122;6.840;2023-11-21T03:56:54;36.70;;;23.10;;
6019;SDS011;3038;51.122;6.840;2023-11-21T03:59:19;34.83;;;22.97;;
6019;SDS011;3038;51.122;6.840;2023-11-21T04:01:45;36.33;;;24.40;;
6019;SDS011;3038;51.122;6.840;2023-11-21T04:04:10;39.50;;;23.90;;
6019;SDS011;3038;51.122;6.840;2023-11-21T04:06:39;35.80;;;23.60;;
6019;SDS011;3038;51.122;6.840;2023-11-21T04:09:12;39.30;;;22.97;;
6019;SDS011;3038;51.122;6.840;2023-11-21T04:11:41;48.97;;;24.10;;
6019;SDS011;3038;51.122;6.840;2023-11-21T04:14:08;39.87;;;23.67;;
6019;SDS011;3038;51.122;6.840;2023-11-21T04:16:34;39.77;;;24.20;;
6019;SDS011;3038;51.122;6.840;2023-11-21T04:19:09;37.20;;;23.90;;
6019;SDS011;3038;51.122;6.840;2023-11-21T04:21:36;37.07;;;21.60;;
6019;SDS011;3038;51.122;6.840;2023-11-21T04:24:02;42.70;;;25.00;;
6019;SDS011;3038;51.122;6.840;2023-11-21T04:26:30;35.07;;;23.23;;
6019;SDS011;3038;51.122;6.840;2023-11-21T04:28:59;36.53;;;22.73;;
6019;SDS011;3038;51.122;6.840;2023-11-21T04:31:25;38.63;;;24.17;;
6019;SDS011;3038;51.122;6.840;2023-11-21T04:33:53;35.17;;;22.47;;
6019;SDS011;3038;51.122;6.840;2023-11-21T04:36:25;36.60;;;25.83;;
6019;SDS011;3038;51.122;6.840;2023-11-21T04:38:50;34.73;;;24.93;;
6019;SDS011;3038;51.122;6.840;2023-11-21T04:41:19;35.97;;;24.50;;
6019;SDS011;3038;51.122;6.840;2023-11-21T04:43:44;43.97;;;26.00;;
6019;SDS011;3038;51.122;6.840;2023-11-21T04:46:10;39.83;;;24.87;;
6019;SDS011;3038;51.122;6.840;2023-11-21T04:48:38;39.60;;;23.77;;
6019;SDS011;3038;51.122;6.840;2023-11-21T04:51:07;36.70;;;23.70;;
6019;SDS011;3038;51.122;6.840;2023-11-21T04:53:35;38.93;;;24.17;;
6019;SDS011;3038;51.122;6.840;2023-11-21T04:56:01;46.07;;;24.53;;
6019;SDS011;3038;51.122;6.840;2023-11-21T04:58:26;38.20;;;24.50;;
6019;SDS011;3038;51.122;6.840;2023-11-21T05:00:52;46.37;;;24.40;;
6019;SDS011;3038;51.122;6.840;2023-11-21T05:03:17;36.67;;;23.03;;
6019;SDS011;3038;51.122;6.840;2023-11-21T05:05:51;35.70;;;22.13;;
6019;SDS011;3038;51.122;6.840;2023-11-21T05:08:17;39.30;;;23.27;;
6019;SDS011;3038;51.122;6.840;2023-11-21T05:10:44;34.93;;;21.93;;
6019;SDS011;3038;51.122;6.840;2023-11-21T05:13:12;36.70;;;23.40;;
6019;SDS011;3038;51.122;6.840;2023-11-21T05:15:45;36.83;;;23.10;;
6019;SDS011;3038;51.122;6.840;2023-11-21T05:18:14;39.33;;;25.90;;
6019;SDS011;3038;51.122;6.840;2023-11-21T05:20:45;40.33;;;23.27;;
6019;SDS011;3038;51.122;6.840;2023-11-21T05:23:14;39.57;;;23.70;;
6019;SDS011;3038;51.122;6.840;2023-11-21T05:25:40;37.87;;;23.60;;
6019;SDS011;3038;51.122;6.840;2023-11-21T05:28:19;34.07;;;21.67;;
6019;SDS011;3038;51.122;6.840;2023-11-21T05:30:45;31.53;;;21.40;;
6019;SDS011;3038;51.122;6.840;2023-11-21T05:33:18;32.30;;;21.33;;
6019;SDS011;3038;51.122;6.840;2023-11-21T05:35:43;32.13;;;21.73;;
6019;SDS011;3038;51.122;6.840;2023-11-21T05:38:16;30.70;;;21.03;;
6019;SDS011;3038;51.122;6.840;2023-11-21T05:40:46;31.90;;;21.33;;
6019;SDS011;3038;51.122;6.840;2023-11-21T05:43:22;43.37;;;22.50;;
6019;SDS011;3038;51.122;6.840;2023-11-21T05:45:51;32.20;;;21.60;;
6019;SDS011;3038;51.122;6.840;2023-11-21T05:48:16;41.83;;;23.17;;
6019;SDS011;3038;51.122;6.840;2023-11-21T05:50:42;38.70;;;23.47;;
6019;SDS011;3038;51.122;6.840;2023-11-21T05:53:08;37.67;;;24.70;;
6019;SDS011;3038;51.122;6.840;2023-11-21T05:55:37;38.40;;;23.50;;
6019;SDS011;3038;51.122;6.840;2023-11-21T05:58:04;33.67;;;23.70;;
6019;SDS011;3038;51.122;6.840;2023-11-21T06:00:35;39.00;;;22.80;;
6019;SDS011;3038;51.122;6.840;2023-11-21T06:03:05;46.30;;;25.43;;
6019;SDS011;3038;51.122;6.840;2023-11-21T06:05:32;35.60;;;23.23;;
6019;SDS011;3038;51.122;6.840;2023-11-21T06:07:58;37.67;;;23.57;;
6019;SDS011;3038;51.122;6.840;2023-11-21T06:10:26;39.67;;;21.83;;
6019;SDS011;3038;51.122;6.840;2023-11-21T06:12:52;42.03;;;23.20;;
6019;SDS011;3038;51.122;6.840;2023-11-21T06:15:18;42.03;;;23.30;;
6019;SDS011;3038;51.122;6.840;2023-11-21T06:17:46;35.97;;;22.57;;
6019;SDS011;3038;51.122;6.840;2023-11-21T06:20:18;34.70;;;22.27;;
6019;SDS011;3038;51.122;6.840;2023-11-21T06:22:45;39.10;;;23.53;;
6019;SDS011;3038;51.122;6.840;2023-11-21T06:25:14;43.00;;;23.60;;
6019;SDS011;3038;51.122;6.840;2023-11-21T06:27:43;46.37;;;23.87;;
6019;SDS011;3038;51.122;6.840;2023-11-21T06:30:10;44.00;;;26.00;;
6019;SDS011;3038;51.122;6.840;2023-11-21T06:32:37;46.73;;;25.07;;
6019;SDS011;3038;51.122;6.840;2023-11-21T06:35:03;50.63;;;25.43;;
6019;SDS011;3038;51.122;6.840;2023-11-21T06:37:29;42.20;;;24.83;;
6019;SDS011;3038;51.122;6.840;2023-11-21T06:39:56;44.73;;;24.97;;
6019;SDS011;3038;51.122;6.840;2023-11-21T06:42:25;55.70;;;25.87;;
6019;SDS011;3038;51.122;6.840;2023-11-21T06:44:54;50.63;;;25.47;;
6019;SDS011;3038;51.122;6.840;2023-11-21T06:47:32;46.80;;;25.40;;
6019;SDS011;3038;51.122;6.840;2023-11-21T06:49:58;46.13;;;26.30;;
6019;SDS011;3038;51.122;6.840;2023-11-21T06:52:27;54.57;;;26.13;;
6019;SDS011;3038;51.122;6.840;2023-11-21T06:54:55;44.67;;;23.40;;
6019;SDS011;3038;51.122;6.840;2023-11-21T06:57:27;38.13;;;24.20;;
6019;SDS011;3038;51.122;6.840;2023-11-21T06:59:53;48.93;;;26.10;;
6019;SDS011;3038;51.122;6.840;2023-11-21T07:02:19;54.27;;;26.03;;
6019;SDS011;3038;51.122;6.840;2023-11-21T07:04:50;45.67;;;25.07;;
6019;SDS011;3038;51.122;6.840;2023-11-21T07:07:18;46.90;;;26.40;;
6019;SDS011;3038;51.122;6.840;2023-11-21T07:09:47;46.77;;;25.50;;
6019;SDS011;3038;51.122;6.840;2023-11-21T07:12:31;46.87;;;26.33;;
6019;SDS011;3038;51.122;6.840;2023-11-21T07:15:18;47.57;;;24.77;;
6019;SDS011;3038;51.122;6.840;2023-11-21T07:17:47;46.60;;;26.10;;
6019;SDS011;3038;51.122;6.840;2023-11-21T07:20:13;45.50;;;24.53;;
6019;SDS011;3038;51.122;6.840;2023-11-21T07:22:46;52.93;;;25.60;;
6019;SDS011;3038;51.122;6.840;2023-11-21T07:25:25;50.53;;;26.23;;
6019;SDS011;3038;51.122;6.840;2023-11-21T07:28:02;52.70;;;27.50;;
6019;SDS011;3038;51.122;6.840;2023-11-21T07:30:43;49.10;;;27.00;;
6019;SDS011;3038;51.122;6.840;2023-11-21T07:33:20;47.83;;;25.97;;
6019;SDS011;3038;51.122;6.840;2023-11-21T07:35:57;58.03;;;29.47;;
6019;SDS011;3038;51.122;6.840;2023-11-21T07:38:50;53.80;;;28.53;;
6019;SDS011;3038;51.122;6.840;2023-11-21T07:41:16;62.00;;;28.47;;
6019;SDS011;3038;51.122;6.840;2023-11-21T07:43:47;53.13;;;28.13;;
6019;SDS011;3038;51.122;6.840;2023-11-21T07:46:18;61.37;;;29.30;;
6019;SDS011;3038;51.122;6.840;2023-11-21T07:48:45;60.37;;;28.30;;
6019;SDS011;3038;51.122;6.840;2023-11-21T07:51:11;50.90;;;28.83;;
6019;SDS011;3038;51.122;6.840;2023-11-21T07:53:39;52.60;;;28.87;;
6019;SDS011;3038;51.122;6.840;2023-11-21T07:56:14;58.23;;;27.30;;
6019;SDS011;3038;51.122;6.840;2023-11-21T07:58:40;55.40;;;30.63;;
6019;SDS011;3038;51.122;6.840;2023-11-21T08:01:05;47.83;;;25.93;;
6019;SDS011;3038;51.122;6.840;2023-11-21T08:03:36;62.43;;;29.53;;
6019;SDS011;3038;51.122;6.840;2023-11-21T08:06:05;56.57;;;27.33;;
6019;SDS011;3038;51.122;6.840;2023-11-21T08:08:33;54.60;;;28.60;;
6019;SDS011;3038;51.122;6.840;2023-11-21T08:10:59;54.37;;;30.90;;
6019;SDS011;3038;51.122;6.840;2023-11-21T08:13:52;64.87;;;30.10;;
6019;SDS011;3038;51.122;6.840;2023-11-21T08:16:19;59.53;;;30.00;;
6019;SDS011;3038;51.122;6.840;2023-11-21T08:18:51;57.67;;;29.73;;
6019;SDS011;3038;51.122;6.840;2023-11-21T08:21:20;64.60;;;31.90;;
6019;SDS011;3038;51.122;6.840;2023-11-21T08:23:54;74.50;;;33.00;;
6019;SDS011;3038;51.122;6.840;2023-11-21T08:26:21;67.50;;;31.30;;
6019;SDS011;3038;51.122;6.840;2023-11-21T08:29:11;56.20;;;30.83;;
6019;SDS011;3038;51.122;6.840;2023-11-21T08:31:36;71.33;;;31.80;;
6019;SDS011;3038;51.122;6.840;2023-11-21T08:34:06;63.07;;;32.87;;
6019;SDS011;3038;51.122;6.840;2023-11-21T08:36:34;65.87;;;32.17;;
6019;SDS011;3038;51.122;6.840;2023-11-21T08:39:20;66.13;;;31.90;;
6019;SDS011;3038;51.122;6.840;2023-11-21T08:41:52;62.43;;;33.67;;
6019;SDS011;3038;51.122;6.840;2023-11-21T08:44:30;73.47;;;33.03;;
6019;SDS011;3038;51.122;6.840;2023-11-21T08:46:55;63.60;;;30.70;;
6019;SDS011;3038;51.122;6.840;2023-11-21T08:49:21;59.73;;;31.33;;
6019;SDS011;3038;51.122;6.840;2023-11-21T08:51:51;60.60;;;32.17;;
6019;SDS011;3038;51.122;6.840;2023-11-21T08:54:16;70.43;;;31.83;;
6019;SDS011;3038;51.122;6.840;2023-11-21T08:56:43;60.47;;;30.27;;
6019;SDS011;3038;51.122;6.840;2023-11-21T08:59:08;71.10;;;29.87;;
6019;SDS011;3038;51.122;6.840;2023-11-21T09:01:34;60.43;;;31.30;;
6019;SDS011;3038;51.122;6.840;2023-11-21T09:04:02;56.50;;;30.93;;
6019;SDS011;3038;51.122;6.840;2023-11-21T09:06:28;63.50;;;31.03;;
6019;SDS011;3038;51.122;6.840;2023-11-21T09:08:56;56.47;;;31.20;;
6019;SDS011;3038;51.122;6.840;2023-11-21T09:11:24;69.07;;;33.10;;
6019;SDS011;3038;51.122;6.840;2023-11-21T09:13:50;59.70;;;30.27;;
6019;SDS011;3038;51.122;6.840;2023-11-21T09:16:19;57.57;;;28.13;;
6019;SDS011;3038;51.122;6.840;2023-11-21T09:18:45;57.23;;;28.53;;
6019;SDS011;3038;51.122;6.840;2023-11-21T09:21:10;55.00;;;28.80;;
6019;SDS011;3038;51.122;6.840;2023-11-21T09:23:36;50.07;;;26.90;;
6019;SDS011;3038;51.122;6.840;2023-11-21T09:26:01;54.83;;;27.90;;
6019;SDS011;3038;51.122;6.840;2023-11-21T09:28:27;61.47;;;30.10;;
6019;SDS011;3038;51.122;6.840;2023-11-21T09:30:55;59.83;;;30.83;;
6019;SDS011;3038;51.122;6.840;2023-11-21T09:33:21;60.47;;;29.37;;
6019;SDS011;3038;51.122;6.840;2023-11-21T09:35:49;58.53;;;29.77;;
6019;SDS011;3038;51.122;6.840;2023-11-21T09:38:16;57.57;;;30.00;;
6019;SDS011;3038;51.122;6.840;2023-11-21T09:40:41;58.80;;;30.90;;
6019;SDS011;3038;51.122;6.840;2023-11-21T09:43:08;52.00;;;28.10;;
6019;SDS011;3038;51.122;6.840;2023-11-21T09:45:41;49.93;;;28.67;;
6019;SDS011;3038;51.122;6.840;2023-11-21T09:48:10;56.20;;;30.53;;
6019;SDS011;3038;51.122;6.840;2023-11-21T09:50:37;48.10;;;28.27;;
6019;SDS011;3038;51.122;6.840;2023-11-21T09:53:09;49.90;;;27.13;;
6019;SDS011;3038;51.122;6.840;2023-11-21T09:55:44;57.27;;;27.70;;
6019;SDS011;3038;51.122;6.840;2023-11-21T09:58:11;47.53;;;27.53;;
6019;SDS011;3038;51.122;6.840;2023-11-21T10:00:41;60.07;;;28.67;;
6019;SDS011;3038;51.122;6.840;2023-11-21T10:03:09;52.10;;;29.40;;
6019;SDS011;3038;51.122;6.840;2023-11-21T10:05:35;53.40;;;27.93;;
6019;SDS011;3038;51.122;6.840;2023-11-21T10:08:01;52.30;;;27.93;;
6019;SDS011;3038;51.122;6.840;2023-11-21T10:10:32;47.07;;;25.90;;
6019;SDS011;3038;51.122;6.840;2023-11-21T10:12:57;51.43;;;28.47;;
6019;SDS011;3038;51.122;6.840;2023-11-21T10:15:28;46.47;;;28.53;;
6019;SDS011;3038;51.122;6.840;2023-11-21T10:17:54;54.50;;;29.10;;
6019;SDS011;3038;51.122;6.840;2023-11-21T10:20:20;55.50;;;30.83;;
6019;SDS011;3038;51.122;6.840;2023-11-21T10:22:47;50.27;;;29.53;;
6019;SDS011;3038;51.122;6.840;2023-11-21T10:25:12;45.57;;;28.40;;
6019;SDS011;3038;51.122;6.840;2023-11-21T10:27:41;48.83;;;28.80;;
6019;SDS011;3038;51.122;6.840;2023-11-21T10:30:08;55.37;;;31.03;;
6019;SDS011;3038;51.122;6.840;2023-11-21T10:32:38;43.90;;;27.60;;
6019;SDS011;3038;51.122;6.840;2023-11-21T10:35:06;57.07;;;28.77;;
6019;SDS011;3038;51.122;6.840;2023-11-21T10:37:38;58.03;;;31.67;;
6019;SDS011;3038;51.122;6.840;2023-11-21T10:40:05;54.67;;;30.07;;
6019;SDS011;3038;51.122;6.840;2023-11-21T10:42:40;52.77;;;30.23;;
6019;SDS011;3038;51.122;6.840;2023-11-21T10:45:07;53.10;;;31.17;;
6019;SDS011;3038;51.122;6.840;2023-11-21T10:47:39;49.43;;;27.67;;
6019;SDS011;3038;51.122;6.840;2023-11-21T10:50:06;49.87;;;29.27;;
6019;SDS011;3038;51.122;6.840;2023-11-21T10:52:36;50.40;;;27.93;;
6019;SDS011;3038;51.122;6.840;2023-11-21T10:55:18;54.30;;;28.10;;
6019;SDS011;3038;51.122;6.840;2023-11-21T10:57:51;52.67;;;28.80;;
6019;SDS011;3038;51.122;6.840;2023-11-21T11:00:26;54.87;;;27.40;;
6019;SDS011;3038;51.122;6.840;2023-11-21T11:02:53;51.70;;;24.70;;
6019;SDS011;3038;51.122;6.840;2023-11-21T11:05:22;49.37;;;26.17;;
6019;SDS011;3038;51.122;6.840;2023-11-21T11:07:54;46.50;;;27.13;;
6019;SDS011;3038;51.122;6.840;2023-11-21T11:10:26;48.97;;;26.23;;
6019;SDS011;3038;51.122;6.840;2023-11-21T11:12:54;50.33;;;26.70;;
6019;SDS011;3038;51.122;6.840;2023-11-21T11:15:20;44.30;;;26.97;;
6019;SDS011;3038;51.122;6.840;2023-11-21T11:17:46;47.50;;;26.60;;
6019;SDS011;3038;51.122;6.840;2023-11-21T11:20:14;48.63;;;24.47;;
6019;SDS011;3038;51.122;6.840;2023-11-21T11:25:46;46.40;;;25.00;;
6019;SDS011;3038;51.122;6.840;2023-11-21T11:28:31;45.43;;;27.10;;
6019;SDS011;3038;51.122;6.840;2023-11-21T11:33:53;40.93;;;23.77;;
6019;SDS011;3038;51.122;6.840;2023-11-21T11:36:37;40.73;;;24.03;;
6019;SDS011;3038;51.122;6.840;2023-11-21T11:42:14;39.07;;;22.70;;
6019;SDS011;3038;51.122;6.840;2023-11-21T11:47:14;41.53;;;23.33;;
6019;SDS011;3038;51.122;6.840;2023-11-21T11:52:53;32.20;;;23.10;;
6019;SDS011;3038;51.122;6.840;2023-11-21T11:55:24;38.40;;;24.30;;
6019;SDS011;3038;51.122;6.840;2023-11-21T11:57:51;41.00;;;25.00;;
6019;SDS011;3038;51.122;6.840;2023-11-21T12:00:21;42.00;;;24.03;;
6019;SDS011;3038;51.122;6.840;2023-11-21T12:03:02;41.43;;;23.87;;
6019;SDS011;3038;51.122;6.840;2023-11-21T12:05:32;36.10;;;23.33;;
6019;SDS011;3038;51.122;6.840;2023-11-21T12:08:07;41.73;;;24.20;;
6019;SDS011;3038;51.122;6.840;2023-11-21T12:10:39;35.93;;;25.40;;
6019;SDS011;3038;51.122;6.840;2023-11-21T12:13:08;38.03;;;25.57;;
6019;SDS011;3038;51.122;6.840;2023-11-21T12:15:37;40.73;;;26.47;;
6019;SDS011;3038;51.122;6.840;2023-11-21T12:18:23;39.30;;;25.13;;
6019;SDS011;3038;51.122;6.840;2023-11-21T12:20:51;46.67;;;26.80;;
6019;SDS011;3038;51.122;6.840;2023-11-21T12:23:20;37.30;;;25.87;;
6019;SDS011;3038;51.122;6.840;2023-11-21T12:25:48;47.27;;;27.93;;
6019;SDS011;3038;51.122;6.840;2023-11-21T12:28:16;41.47;;;26.47;;
6019;SDS011;3038;51.122;6.840;2023-11-21T12:30:46;43.40;;;28.37;;
6019;SDS011;3038;51.122;6.840;2023-11-21T12:33:12;44.37;;;28.83;;
6019;SDS011;3038;51.122;6.840;2023-11-21T12:35:45;48.90;;;28.63;;
6019;SDS011;3038;51.122;6.840;2023-11-21T12:38:37;47.07;;;31.13;;
6019;SDS011;3038;51.122;6.840;2023-11-21T12:41:07;49.80;;;30.00;;
6019;SDS011;3038;51.122;6.840;2023-11-21T12:43:33;45.13;;;31.33;;
6019;SDS011;3038;51.122;6.840;2023-11-21T12:46:11;43.37;;;29.23;;
6019;SDS011;3038;51.122;6.840;2023-11-21T12:48:43;45.33;;;28.47;;
6019;SDS011;3038;51.122;6.840;2023-11-21T12:51:11;40.93;;;27.27;;
6019;SDS011;3038;51.122;6.840;2023-11-21T12:53:41;42.53;;;28.00;;
6019;SDS011;3038;51.122;6.840;2023-11-21T12:56:11;37.40;;;25.83;;
6019;SDS011;3038;51.122;6.840;2023-11-21T12:58:44;35.10;;;25.67;;
6019;SDS011;3038;51.122;6.840;2023-11-21T13:01:12;44.27;;;27.30;;
6019;SDS011;3038;51.122;6.840;2023-11-21T13:03:43;38.90;;;26.17;;
6019;SDS011;3038;51.122;6.840;2023-11-21T13:06:15;31.87;;;23.63;;
6019;SDS011;3038;51.122;6.840;2023-11-21T13:08:44;38.80;;;24.50;;
6019;SDS011;3038;51.122;6.840;2023-11-21T13:11:18;40.30;;;24.50;;
6019;SDS011;3038;51.122;6.840;2023-11-21T13:13:47;38.30;;;26.60;;
6019;SDS011;3038;51.122;6.840;2023-11-21T13:16:16;50.77;;;31.00;;
6019;SDS011;3038;51.122;6.840;2023-11-21T13:18:45;47.13;;;29.87;;
6019;SDS011;3038;51.122;6.840;2023-11-21T13:21:40;50.63;;;31.53;;
6019;SDS011;3038;51.122;6.840;2023-11-21T13:24:24;58.47;;;35.77;;
6019;SDS011;3038;51.122;6.840;2023-11-21T13:27:22;56.03;;;35.73;;
6019;SDS011;3038;51.122;6.840;2023-11-21T13:29:53;54.27;;;35.57;;
6019;SDS011;3038;51.122;6.840;2023-11-21T13:32:25;58.10;;;35.47;;
6019;SDS011;3038;51.122;6.840;2023-11-21T13:34:51;55.93;;;34.83;;
6019;SDS011;3038;51.122;6.840;2023-11-21T13:37:19;54.57;;;34.60;;
6019;SDS011;3038;51.122;6.840;2023-11-21T13:39:44;49.10;;;28.97;;
6019;SDS011;3038;51.122;6.840;2023-11-21T13:42:14;50.40;;;30.60;;
6019;SDS011;3038;51.122;6.840;2023-11-21T13:44:41;50.40;;;32.00;;
6019;SDS011;3038;51.122;6.840;2023-11-21T13:47:11;53.87;;;30.87;;
6019;SDS011;3038;51.122;6.840;2023-11-21T13:49:37;44.50;;;29.37;;
6019;SDS011;3038;51.122;6.840;2023-11-21T13:52:08;55.37;;;32.70;;
6019;SDS011;3038;51.122;6.840;2023-11-21T13:54:36;44.10;;;28.27;;
6019;SDS011;3038;51.122;6.840;2023-11-21T13:57:01;45.20;;;28.37;;
6019;SDS011;3038;51.122;6.840;2023-11-21T13:59:28;45.73;;;29.70;;
6019;SDS011;3038;51.122;6.840;2023-11-21T14:01:55;43.53;;;28.27;;
6019;SDS011;3038;51.122;6.840;2023-11-21T14:04:22;41.70;;;27.33;;
6019;SDS011;3038;51.122;6.840;2023-11-21T14:06:56;50.20;;;28.83;;
6019;SDS011;3038;51.122;6.840;2023-11-21T14:09:25;43.20;;;27.57;;
6019;SDS011;3038;51.122;6.840;2023-11-21T14:11:58;52.20;;;31.37;;
6019;SDS011;3038;51.122;6.840;2023-11-21T14:14:31;52.77;;;29.70;;
6019;SDS011;3038;51.122;6.840;2023-11-21T14:16:59;54.17;;;31.40;;
6019;SDS011;3038;51.122;6.840;2023-11-21T14:19:24;53.20;;;31.37;;
6019;SDS011;3038;51.122;6.840;2023-11-21T14:21:59;48.97;;;29.23;;
6019;SDS011;3038;51.122;6.840;2023-11-21T14:24:24;48.87;;;31.10;;
6019;SDS011;3038;51.122;6.840;2023-11-21T14:26:50;59.83;;;33.63;;
6019;SDS011;3038;51.122;6.840;2023-11-21T14:29:16;56.70;;;33.50;;
6019;SDS011;3038;51.122;6.840;2023-11-21T14:31:45;60.27;;;35.00;;
6019;SDS011;3038;51.122;6.840;2023-11-21T14:34:11;61.20;;;36.97;;
6019;SDS011;3038;51.122;6.840;2023-11-21T14:36:40;62.17;;;36.00;;
6019;SDS011;3038;51.122;6.840;2023-11-21T14:39:06;65.20;;;38.77;;
6019;SDS011;3038;51.122;6.840;2023-11-21T14:41:36;61.20;;;37.33;;
6019;SDS011;3038;51.122;6.840;2023-11-21T14:44:04;70.50;;;40.27;;
6019;SDS011;3038;51.122;6.840;2023-11-21T14:46:32;58.13;;;34.80;;
6019;SDS011;3038;51.122;6.840;2023-11-21T14:49:00;60.20;;;34.43;;
6019;SDS011;3038;51.122;6.840;2023-11-21T14:51:43;67.03;;;36.17;;
6019;SDS011;3038;51.122;6.840;2023-11-21T14:54:28;50.47;;;28.73;;
6019;SDS011;3038;51.122;6.840;2023-11-21T14:57:08;44.50;;;25.50;;
6019;SDS011;3038;51.122;6.840;2023-11-21T14:59:43;37.17;;;21.80;;
6019;SDS011;3038;51.122;6.840;2023-11-21T15:02:24;32.37;;;21.30;;
6019;SDS011;3038;51.122;6.840;2023-11-21T15:05:15;32.47;;;22.07;;
6019;SDS011;3038;51.122;6.840;2023-11-21T15:07:41;34.87;;;23.17;;
6019;SDS011;3038;51.122;6.840;2023-11-21T15:10:07;31.40;;;20.07;;
6019;SDS011;3038;51.122;6.840;2023-11-21T15:12:39;32.83;;;20.83;;
6019;SDS011;3038;51.122;6.840;2023-11-21T15:15:08;22.80;;;15.97;;
6019;SDS011;3038;51.122;6.840;2023-11-21T15:17:35;23.93;;;16.20;;